sensor_id;sensor_type;location;lat;lon;timestamp;P1;durP1;ratioP1;P2;durP2;ratioP2
21418;SDS011;10870;51.384;10.316;2023-03-01T00:01:59;27.58;;;17.17;;
21418;SDS011;10870;51.384;10.316;2023-03-01T00:04:07;23.45;;;16.30;;
21418;SDS011;10870;51.384;10.316;2023-03-01T00:06:09;25.63;;;17.60;;
21418;SDS011;10870;51.384;10.316;2023-03-01T00:08:10;24.35;;;17.17;;
21418;SDS011;10870;51.384;10.316;2023-03-01T00:10:12;28.67;;;16.73;;
21418;SDS011;10870;51.384;10.316;2023-03-01T00:12:16;25.52;;;16.80;;
21418;SDS011;10870;51.384;10.316;2023-03-01T00:14:20;27.98;;;16.73;;
21418;SDS011;10870;51.384;10.316;2023-03-01T00:16:33;24.95;;;17.20;;
21418;SDS011;10870;51.384;10.316;2023-03-01T00:18:34;24.20;;;16.90;;
21418;SDS011;10870;51.384;10.316;2023-03-01T00:20:38;27.42;;;17.83;;
21418;SDS011;10870;51.384;10.316;2023-03-01T00:22:42;27.08;;;17.30;;
21418;SDS011;10870;51.384;10.316;2023-03-01T00:30:52;29.02;;;17.08;;
21418;SDS011;10870;51.384;10.316;2023-03-01T00:32:55;28.67;;;16.10;;
21418;SDS011;10870;51.384;10.316;2023-03-01T00:34:57;27.55;;;17.73;;
21418;SDS011;10870;51.384;10.316;2023-03-01T00:36:59;27.90;;;16.50;;
21418;SDS011;10870;51.384;10.316;2023-03-01T00:39:07;30.98;;;17.20;;
21418;SDS011;10870;51.384;10.316;2023-03-01T00:41:15;29.75;;;16.80;;
21418;SDS011;10870;51.384;10.316;2023-03-01T00:43:19;24.00;;;16.00;;
21418;SDS011;10870;51.384;10.316;2023-03-01T00:45:21;27.50;;;15.80;;
21418;SDS011;10870;51.384;10.316;2023-03-01T00:47:25;24.88;;;16.20;;
21418;SDS011;10870;51.384;10.316;2023-03-01T00:49:29;28.00;;;17.20;;
21418;SDS011;10870;51.384;10.316;2023-03-01T00:51:33;28.08;;;16.58;;
21418;SDS011;10870;51.384;10.316;2023-03-01T00:53:35;26.67;;;15.80;;
21418;SDS011;10870;51.384;10.316;2023-03-01T00:55:39;25.77;;;16.08;;
21418;SDS011;10870;51.384;10.316;2023-03-01T00:57:40;26.02;;;15.68;;
21418;SDS011;10870;51.384;10.316;2023-03-01T00:59:44;20.27;;;14.52;;
21418;SDS011;10870;51.384;10.316;2023-03-01T01:01:46;25.67;;;17.00;;
21418;SDS011;10870;51.384;10.316;2023-03-01T01:03:51;31.50;;;17.90;;
21418;SDS011;10870;51.384;10.316;2023-03-01T01:05:53;25.52;;;17.00;;
21418;SDS011;10870;51.384;10.316;2023-03-01T01:07:57;28.67;;;18.17;;
21418;SDS011;10870;51.384;10.316;2023-03-01T01:09:58;28.95;;;17.92;;
21418;SDS011;10870;51.384;10.316;2023-03-01T01:12:02;25.05;;;18.23;;
21418;SDS011;10870;51.384;10.316;2023-03-01T01:14:09;28.25;;;18.15;;
21418;SDS011;10870;51.384;10.316;2023-03-01T01:16:13;32.50;;;19.70;;
21418;SDS011;10870;51.384;10.316;2023-03-01T01:18:14;29.08;;;18.92;;
21418;SDS011;10870;51.384;10.316;2023-03-01T01:20:16;28.45;;;18.08;;
21418;SDS011;10870;51.384;10.316;2023-03-01T01:22:18;27.75;;;17.48;;
21418;SDS011;10870;51.384;10.316;2023-03-01T01:24:19;26.60;;;16.35;;
21418;SDS011;10870;51.384;10.316;2023-03-01T01:26:24;25.48;;;16.45;;
21418;SDS011;10870;51.384;10.316;2023-03-01T01:28:28;25.25;;;15.35;;
21418;SDS011;10870;51.384;10.316;2023-03-01T01:30:32;23.60;;;15.85;;
21418;SDS011;10870;51.384;10.316;2023-03-01T01:32:33;27.23;;;15.63;;
21418;SDS011;10870;51.384;10.316;2023-03-01T01:34:35;23.60;;;15.00;;
21418;SDS011;10870;51.384;10.316;2023-03-01T01:36:39;25.60;;;15.38;;
21418;SDS011;10870;51.384;10.316;2023-03-01T01:38:41;25.23;;;16.50;;
21418;SDS011;10870;51.384;10.316;2023-03-01T01:40:45;25.45;;;15.63;;
21418;SDS011;10870;51.384;10.316;2023-03-01T01:42:48;23.35;;;14.75;;
21418;SDS011;10870;51.384;10.316;2023-03-01T01:47:18;26.08;;;17.30;;
21418;SDS011;10870;51.384;10.316;2023-03-01T01:51:37;27.23;;;17.42;;
21418;SDS011;10870;51.384;10.316;2023-03-01T01:53:40;30.35;;;17.13;;
21418;SDS011;10870;51.384;10.316;2023-03-01T01:55:46;28.80;;;19.02;;
21418;SDS011;10870;51.384;10.316;2023-03-01T01:57:58;34.85;;;21.17;;
21418;SDS011;10870;51.384;10.316;2023-03-01T02:00:03;37.05;;;19.90;;
21418;SDS011;10870;51.384;10.316;2023-03-01T02:02:08;31.40;;;19.98;;
21418;SDS011;10870;51.384;10.316;2023-03-01T02:04:12;28.77;;;17.90;;
21418;SDS011;10870;51.384;10.316;2023-03-01T02:06:19;30.08;;;18.30;;
21418;SDS011;10870;51.384;10.316;2023-03-01T02:08:25;29.88;;;17.70;;
21418;SDS011;10870;51.384;10.316;2023-03-01T02:10:33;32.35;;;19.52;;
21418;SDS011;10870;51.384;10.316;2023-03-01T02:12:43;32.67;;;17.80;;
21418;SDS011;10870;51.384;10.316;2023-03-01T02:14:45;28.55;;;17.83;;
21418;SDS011;10870;51.384;10.316;2023-03-01T02:16:46;31.98;;;18.20;;
21418;SDS011;10870;51.384;10.316;2023-03-01T02:18:51;29.83;;;17.38;;
21418;SDS011;10870;51.384;10.316;2023-03-01T02:23:09;27.73;;;18.08;;
21418;SDS011;10870;51.384;10.316;2023-03-01T02:27:19;26.17;;;17.33;;
21418;SDS011;10870;51.384;10.316;2023-03-01T02:29:25;24.35;;;16.40;;
21418;SDS011;10870;51.384;10.316;2023-03-01T02:31:29;26.77;;;16.10;;
21418;SDS011;10870;51.384;10.316;2023-03-01T02:33:43;31.20;;;16.50;;
21418;SDS011;10870;51.384;10.316;2023-03-01T02:35:47;30.10;;;16.92;;
21418;SDS011;10870;51.384;10.316;2023-03-01T02:37:53;28.42;;;16.90;;
21418;SDS011;10870;51.384;10.316;2023-03-01T02:39:59;23.63;;;16.40;;
21418;SDS011;10870;51.384;10.316;2023-03-01T02:42:06;27.42;;;16.63;;
21418;SDS011;10870;51.384;10.316;2023-03-01T02:44:10;25.40;;;15.60;;
21418;SDS011;10870;51.384;10.316;2023-03-01T02:46:22;30.75;;;15.70;;
21418;SDS011;10870;51.384;10.316;2023-03-01T02:48:23;25.05;;;16.00;;
21418;SDS011;10870;51.384;10.316;2023-03-01T02:50:39;26.25;;;15.90;;
21418;SDS011;10870;51.384;10.316;2023-03-01T02:52:50;25.90;;;16.52;;
21418;SDS011;10870;51.384;10.316;2023-03-01T02:55:08;27.75;;;16.90;;
21418;SDS011;10870;51.384;10.316;2023-03-01T02:57:10;25.83;;;16.20;;
21418;SDS011;10870;51.384;10.316;2023-03-01T02:59:15;26.83;;;17.20;;
21418;SDS011;10870;51.384;10.316;2023-03-01T03:01:18;26.42;;;17.30;;
21418;SDS011;10870;51.384;10.316;2023-03-01T03:03:23;28.98;;;17.98;;
21418;SDS011;10870;51.384;10.316;2023-03-01T03:05:30;24.67;;;16.30;;
21418;SDS011;10870;51.384;10.316;2023-03-01T03:07:32;25.38;;;14.80;;
21418;SDS011;10870;51.384;10.316;2023-03-01T03:09:43;33.40;;;16.67;;
21418;SDS011;10870;51.384;10.316;2023-03-01T03:11:47;28.83;;;15.57;;
21418;SDS011;10870;51.384;10.316;2023-03-01T03:13:49;27.75;;;15.95;;
21418;SDS011;10870;51.384;10.316;2023-03-01T03:15:55;25.52;;;16.35;;
21418;SDS011;10870;51.384;10.316;2023-03-01T03:17:58;23.67;;;15.90;;
21418;SDS011;10870;51.384;10.316;2023-03-01T03:19:59;24.15;;;15.68;;
21418;SDS011;10870;51.384;10.316;2023-03-01T03:22:04;26.70;;;17.33;;
21418;SDS011;10870;51.384;10.316;2023-03-01T03:24:06;27.67;;;15.05;;
21418;SDS011;10870;51.384;10.316;2023-03-01T03:26:10;26.95;;;16.15;;
21418;SDS011;10870;51.384;10.316;2023-03-01T03:28:14;27.33;;;15.30;;
21418;SDS011;10870;51.384;10.316;2023-03-01T03:30:17;27.10;;;15.30;;
21418;SDS011;10870;51.384;10.316;2023-03-01T03:32:22;24.92;;;15.25;;
21418;SDS011;10870;51.384;10.316;2023-03-01T03:34:23;22.08;;;15.02;;
21418;SDS011;10870;51.384;10.316;2023-03-01T03:36:25;27.27;;;15.80;;
21418;SDS011;10870;51.384;10.316;2023-03-01T03:38:28;23.45;;;14.35;;
21418;SDS011;10870;51.384;10.316;2023-03-01T03:40:36;26.98;;;15.15;;
21418;SDS011;10870;51.384;10.316;2023-03-01T03:42:38;21.60;;;13.93;;
21418;SDS011;10870;51.384;10.316;2023-03-01T03:44:43;23.05;;;14.98;;
21418;SDS011;10870;51.384;10.316;2023-03-01T03:46:50;26.75;;;14.98;;
21418;SDS011;10870;51.384;10.316;2023-03-01T03:48:51;25.48;;;16.73;;
21418;SDS011;10870;51.384;10.316;2023-03-01T03:50:55;25.58;;;14.35;;
21418;SDS011;10870;51.384;10.316;2023-03-01T03:53:00;23.35;;;15.13;;
21418;SDS011;10870;51.384;10.316;2023-03-01T03:55:02;25.08;;;15.82;;
21418;SDS011;10870;51.384;10.316;2023-03-01T03:57:06;26.52;;;15.60;;
21418;SDS011;10870;51.384;10.316;2023-03-01T03:59:08;27.50;;;15.73;;
21418;SDS011;10870;51.384;10.316;2023-03-01T04:01:14;28.77;;;16.42;;
21418;SDS011;10870;51.384;10.316;2023-03-01T04:03:22;33.63;;;17.38;;
21418;SDS011;10870;51.384;10.316;2023-03-01T04:05:26;28.92;;;18.02;;
21418;SDS011;10870;51.384;10.316;2023-03-01T04:07:28;28.10;;;16.98;;
21418;SDS011;10870;51.384;10.316;2023-03-01T04:09:31;29.23;;;17.42;;
21418;SDS011;10870;51.384;10.316;2023-03-01T04:11:33;31.65;;;17.50;;
21418;SDS011;10870;51.384;10.316;2023-03-01T04:13:37;28.42;;;17.35;;
21418;SDS011;10870;51.384;10.316;2023-03-01T04:15:39;27.10;;;16.73;;
21418;SDS011;10870;51.384;10.316;2023-03-01T04:17:41;30.75;;;18.27;;
21418;SDS011;10870;51.384;10.316;2023-03-01T04:19:48;28.83;;;17.40;;
21418;SDS011;10870;51.384;10.316;2023-03-01T04:21:52;28.42;;;16.35;;
21418;SDS011;10870;51.384;10.316;2023-03-01T04:23:58;27.60;;;16.63;;
21418;SDS011;10870;51.384;10.316;2023-03-01T04:26:03;26.17;;;16.63;;
21418;SDS011;10870;51.384;10.316;2023-03-01T04:28:08;25.88;;;16.80;;
21418;SDS011;10870;51.384;10.316;2023-03-01T04:30:10;28.63;;;17.15;;
21418;SDS011;10870;51.384;10.316;2023-03-01T04:32:12;27.55;;;16.33;;
21418;SDS011;10870;51.384;10.316;2023-03-01T04:34:25;28.45;;;15.90;;
21418;SDS011;10870;51.384;10.316;2023-03-01T04:36:38;28.75;;;17.77;;
21418;SDS011;10870;51.384;10.316;2023-03-01T04:38:41;27.45;;;15.95;;
21418;SDS011;10870;51.384;10.316;2023-03-01T04:40:50;26.85;;;15.27;;
21418;SDS011;10870;51.384;10.316;2023-03-01T04:42:54;26.80;;;15.60;;
21418;SDS011;10870;51.384;10.316;2023-03-01T04:44:55;30.58;;;15.77;;
21418;SDS011;10870;51.384;10.316;2023-03-01T04:46:57;24.80;;;15.45;;
21418;SDS011;10870;51.384;10.316;2023-03-01T04:48:59;25.88;;;14.38;;
21418;SDS011;10870;51.384;10.316;2023-03-01T04:51:03;23.90;;;14.45;;
21418;SDS011;10870;51.384;10.316;2023-03-01T04:53:08;22.35;;;15.48;;
21418;SDS011;10870;51.384;10.316;2023-03-01T04:55:10;24.60;;;15.23;;
21418;SDS011;10870;51.384;10.316;2023-03-01T04:57:11;23.27;;;13.95;;
21418;SDS011;10870;51.384;10.316;2023-03-01T04:59:17;24.50;;;14.07;;
21418;SDS011;10870;51.384;10.316;2023-03-01T05:01:25;25.65;;;15.63;;
21418;SDS011;10870;51.384;10.316;2023-03-01T05:03:27;24.35;;;14.73;;
21418;SDS011;10870;51.384;10.316;2023-03-01T05:05:33;21.40;;;14.63;;
21418;SDS011;10870;51.384;10.316;2023-03-01T05:07:37;25.92;;;14.23;;
21418;SDS011;10870;51.384;10.316;2023-03-01T05:09:47;23.95;;;14.90;;
21418;SDS011;10870;51.384;10.316;2023-03-01T05:11:50;25.65;;;14.85;;
21418;SDS011;10870;51.384;10.316;2023-03-01T05:13:55;29.55;;;16.23;;
21418;SDS011;10870;51.384;10.316;2023-03-01T05:16:00;28.85;;;14.80;;
21418;SDS011;10870;51.384;10.316;2023-03-01T05:18:02;29.17;;;15.82;;
21418;SDS011;10870;51.384;10.316;2023-03-01T05:20:03;28.50;;;18.08;;
21418;SDS011;10870;51.384;10.316;2023-03-01T05:22:11;27.65;;;15.60;;
21418;SDS011;10870;51.384;10.316;2023-03-01T05:24:12;24.05;;;15.55;;
21418;SDS011;10870;51.384;10.316;2023-03-01T05:26:14;29.95;;;17.88;;
21418;SDS011;10870;51.384;10.316;2023-03-01T05:28:18;25.38;;;15.48;;
21418;SDS011;10870;51.384;10.316;2023-03-01T05:30:22;28.23;;;16.45;;
21418;SDS011;10870;51.384;10.316;2023-03-01T05:32:27;26.45;;;15.18;;
21418;SDS011;10870;51.384;10.316;2023-03-01T05:34:34;27.90;;;15.30;;
21418;SDS011;10870;51.384;10.316;2023-03-01T05:36:41;24.73;;;15.57;;
21418;SDS011;10870;51.384;10.316;2023-03-01T05:38:45;24.95;;;15.55;;
21418;SDS011;10870;51.384;10.316;2023-03-01T05:40:49;23.75;;;15.18;;
21418;SDS011;10870;51.384;10.316;2023-03-01T05:42:55;29.10;;;16.75;;
21418;SDS011;10870;51.384;10.316;2023-03-01T05:45:01;25.23;;;15.32;;
21418;SDS011;10870;51.384;10.316;2023-03-01T05:47:06;26.63;;;16.35;;
21418;SDS011;10870;51.384;10.316;2023-03-01T05:49:11;26.90;;;15.95;;
21418;SDS011;10870;51.384;10.316;2023-03-01T05:51:19;26.48;;;14.80;;
21418;SDS011;10870;51.384;10.316;2023-03-01T05:53:22;24.10;;;15.77;;
21418;SDS011;10870;51.384;10.316;2023-03-01T05:55:27;26.08;;;15.40;;
21418;SDS011;10870;51.384;10.316;2023-03-01T05:57:29;25.88;;;15.70;;
21418;SDS011;10870;51.384;10.316;2023-03-01T05:59:33;26.85;;;16.60;;
21418;SDS011;10870;51.384;10.316;2023-03-01T06:01:35;27.83;;;16.38;;
21418;SDS011;10870;51.384;10.316;2023-03-01T06:03:37;28.63;;;16.63;;
21418;SDS011;10870;51.384;10.316;2023-03-01T06:05:41;24.73;;;17.05;;
21418;SDS011;10870;51.384;10.316;2023-03-01T06:07:43;27.25;;;16.95;;
21418;SDS011;10870;51.384;10.316;2023-03-01T06:09:45;27.05;;;17.05;;
21418;SDS011;10870;51.384;10.316;2023-03-01T06:11:51;23.50;;;14.88;;
21418;SDS011;10870;51.384;10.316;2023-03-01T06:13:55;26.10;;;16.25;;
21418;SDS011;10870;51.384;10.316;2023-03-01T06:16:00;30.45;;;17.83;;
21418;SDS011;10870;51.384;10.316;2023-03-01T06:18:01;27.52;;;15.40;;
21418;SDS011;10870;51.384;10.316;2023-03-01T06:20:10;33.83;;;18.23;;
21418;SDS011;10870;51.384;10.316;2023-03-01T06:22:21;30.00;;;18.15;;
21418;SDS011;10870;51.384;10.316;2023-03-01T06:24:26;32.55;;;18.98;;
21418;SDS011;10870;51.384;10.316;2023-03-01T06:26:32;42.25;;;24.33;;
21418;SDS011;10870;51.384;10.316;2023-03-01T06:28:36;36.78;;;21.50;;
21418;SDS011;10870;51.384;10.316;2023-03-01T06:30:41;38.25;;;21.42;;
21418;SDS011;10870;51.384;10.316;2023-03-01T06:32:42;36.65;;;22.60;;
21418;SDS011;10870;51.384;10.316;2023-03-01T06:34:48;40.63;;;24.13;;
21418;SDS011;10870;51.384;10.316;2023-03-01T06:36:50;46.55;;;23.38;;
21418;SDS011;10870;51.384;10.316;2023-03-01T06:38:52;39.13;;;22.75;;
21418;SDS011;10870;51.384;10.316;2023-03-01T06:40:54;37.22;;;22.92;;
21418;SDS011;10870;51.384;10.316;2023-03-01T06:42:57;48.10;;;24.67;;
21418;SDS011;10870;51.384;10.316;2023-03-01T06:45:04;44.65;;;26.33;;
21418;SDS011;10870;51.384;10.316;2023-03-01T06:47:12;55.05;;;32.05;;
21418;SDS011;10870;51.384;10.316;2023-03-01T06:49:13;54.33;;;30.83;;
21418;SDS011;10870;51.384;10.316;2023-03-01T06:51:16;64.75;;;34.40;;
21418;SDS011;10870;51.384;10.316;2023-03-01T06:53:18;57.08;;;33.20;;
21418;SDS011;10870;51.384;10.316;2023-03-01T06:55:20;42.20;;;27.20;;
21418;SDS011;10870;51.384;10.316;2023-03-01T06:57:31;38.80;;;23.00;;
21418;SDS011;10870;51.384;10.316;2023-03-01T06:59:34;33.78;;;20.40;;
21418;SDS011;10870;51.384;10.316;2023-03-01T07:01:35;32.38;;;17.33;;
21418;SDS011;10870;51.384;10.316;2023-03-01T07:03:40;37.13;;;18.95;;
21418;SDS011;10870;51.384;10.316;2023-03-01T07:05:47;34.45;;;18.70;;
21418;SDS011;10870;51.384;10.316;2023-03-01T07:07:49;29.63;;;18.17;;
21418;SDS011;10870;51.384;10.316;2023-03-01T07:09:50;25.75;;;16.30;;
21418;SDS011;10870;51.384;10.316;2023-03-01T07:11:56;33.47;;;17.77;;
21418;SDS011;10870;51.384;10.316;2023-03-01T07:13:57;27.35;;;16.63;;
21418;SDS011;10870;51.384;10.316;2023-03-01T07:16:01;29.08;;;16.60;;
21418;SDS011;10870;51.384;10.316;2023-03-01T07:18:05;28.58;;;17.83;;
21418;SDS011;10870;51.384;10.316;2023-03-01T07:20:07;27.52;;;17.92;;
21418;SDS011;10870;51.384;10.316;2023-03-01T07:24:24;29.02;;;17.25;;
21418;SDS011;10870;51.384;10.316;2023-03-01T07:26:27;34.80;;;18.20;;
21418;SDS011;10870;51.384;10.316;2023-03-01T07:28:31;33.22;;;16.80;;
21418;SDS011;10870;51.384;10.316;2023-03-01T07:30:38;28.17;;;17.00;;
21418;SDS011;10870;51.384;10.316;2023-03-01T07:32:40;27.42;;;15.95;;
21418;SDS011;10870;51.384;10.316;2023-03-01T07:34:42;27.70;;;16.13;;
21418;SDS011;10870;51.384;10.316;2023-03-01T07:36:43;27.70;;;16.58;;
21418;SDS011;10870;51.384;10.316;2023-03-01T07:38:45;22.42;;;15.20;;
21418;SDS011;10870;51.384;10.316;2023-03-01T07:40:47;28.80;;;15.70;;
21418;SDS011;10870;51.384;10.316;2023-03-01T07:42:48;25.83;;;13.73;;
21418;SDS011;10870;51.384;10.316;2023-03-01T07:44:49;24.13;;;14.15;;
21418;SDS011;10870;51.384;10.316;2023-03-01T07:46:56;22.77;;;13.20;;
21418;SDS011;10870;51.384;10.316;2023-03-01T07:48:59;23.10;;;13.38;;
21418;SDS011;10870;51.384;10.316;2023-03-01T07:51:03;25.33;;;13.85;;
21418;SDS011;10870;51.384;10.316;2023-03-01T07:53:08;20.92;;;13.40;;
21418;SDS011;10870;51.384;10.316;2023-03-01T07:55:12;22.38;;;14.10;;
21418;SDS011;10870;51.384;10.316;2023-03-01T07:57:13;26.92;;;13.15;;
21418;SDS011;10870;51.384;10.316;2023-03-01T07:59:15;23.42;;;12.75;;
21418;SDS011;10870;51.384;10.316;2023-03-01T08:01:21;24.83;;;14.52;;
21418;SDS011;10870;51.384;10.316;2023-03-01T08:03:26;20.58;;;12.20;;
21418;SDS011;10870;51.384;10.316;2023-03-01T08:05:27;19.15;;;11.85;;
21418;SDS011;10870;51.384;10.316;2023-03-01T08:07:32;29.80;;;12.60;;
21418;SDS011;10870;51.384;10.316;2023-03-01T08:09:34;18.60;;;11.73;;
21418;SDS011;10870;51.384;10.316;2023-03-01T08:11:37;20.00;;;12.77;;
21418;SDS011;10870;51.384;10.316;2023-03-01T08:13:38;22.67;;;12.55;;
21418;SDS011;10870;51.384;10.316;2023-03-01T08:15:40;21.75;;;12.80;;
21418;SDS011;10870;51.384;10.316;2023-03-01T08:17:41;22.33;;;12.70;;
21418;SDS011;10870;51.384;10.316;2023-03-01T08:19:47;22.88;;;13.30;;
21418;SDS011;10870;51.384;10.316;2023-03-01T08:21:49;19.63;;;11.85;;
21418;SDS011;10870;51.384;10.316;2023-03-01T08:23:50;22.77;;;12.75;;
21418;SDS011;10870;51.384;10.316;2023-03-01T08:25:54;20.10;;;11.75;;
21418;SDS011;10870;51.384;10.316;2023-03-01T08:28:01;22.63;;;12.18;;
21418;SDS011;10870;51.384;10.316;2023-03-01T08:30:05;17.60;;;11.35;;
21418;SDS011;10870;51.384;10.316;2023-03-01T08:32:07;16.77;;;10.88;;
21418;SDS011;10870;51.384;10.316;2023-03-01T08:34:09;21.67;;;11.65;;
21418;SDS011;10870;51.384;10.316;2023-03-01T08:36:11;20.08;;;11.40;;
21418;SDS011;10870;51.384;10.316;2023-03-01T08:38:13;19.40;;;10.63;;
21418;SDS011;10870;51.384;10.316;2023-03-01T08:40:14;19.35;;;10.98;;
21418;SDS011;10870;51.384;10.316;2023-03-01T08:42:22;22.92;;;10.35;;
21418;SDS011;10870;51.384;10.316;2023-03-01T08:44:23;19.95;;;10.68;;
21418;SDS011;10870;51.384;10.316;2023-03-01T08:46:26;17.92;;;10.18;;
21418;SDS011;10870;51.384;10.316;2023-03-01T08:48:29;17.73;;;10.77;;
21418;SDS011;10870;51.384;10.316;2023-03-01T08:50:31;21.00;;;11.57;;
21418;SDS011;10870;51.384;10.316;2023-03-01T08:52:35;15.45;;;10.27;;
21418;SDS011;10870;51.384;10.316;2023-03-01T08:54:36;15.15;;;10.45;;
21418;SDS011;10870;51.384;10.316;2023-03-01T08:56:40;17.75;;;11.77;;
21418;SDS011;10870;51.384;10.316;2023-03-01T08:58:45;21.48;;;11.23;;
21418;SDS011;10870;51.384;10.316;2023-03-01T09:00:47;18.58;;;11.55;;
21418;SDS011;10870;51.384;10.316;2023-03-01T09:02:51;21.10;;;10.93;;
21418;SDS011;10870;51.384;10.316;2023-03-01T09:04:52;16.35;;;10.32;;
21418;SDS011;10870;51.384;10.316;2023-03-01T09:06:56;19.95;;;10.65;;
21418;SDS011;10870;51.384;10.316;2023-03-01T09:08:57;19.85;;;11.40;;
21418;SDS011;10870;51.384;10.316;2023-03-01T09:11:00;18.92;;;10.32;;
21418;SDS011;10870;51.384;10.316;2023-03-01T09:13:02;19.77;;;11.10;;
21418;SDS011;10870;51.384;10.316;2023-03-01T09:15:09;20.60;;;10.93;;
21418;SDS011;10870;51.384;10.316;2023-03-01T09:17:13;18.70;;;11.77;;
21418;SDS011;10870;51.384;10.316;2023-03-01T09:19:17;15.77;;;10.18;;
21418;SDS011;10870;51.384;10.316;2023-03-01T09:21:20;18.00;;;10.80;;
21418;SDS011;10870;51.384;10.316;2023-03-01T09:23:22;18.80;;;11.50;;
21418;SDS011;10870;51.384;10.316;2023-03-01T09:25:24;19.75;;;10.80;;
21418;SDS011;10870;51.384;10.316;2023-03-01T09:27:30;18.77;;;10.63;;
21418;SDS011;10870;51.384;10.316;2023-03-01T09:29:32;17.65;;;10.70;;
21418;SDS011;10870;51.384;10.316;2023-03-01T09:31:35;18.52;;;11.32;;
21418;SDS011;10870;51.384;10.316;2023-03-01T09:33:37;19.40;;;11.30;;
21418;SDS011;10870;51.384;10.316;2023-03-01T09:35:38;22.10;;;11.70;;
21418;SDS011;10870;51.384;10.316;2023-03-01T09:37:46;23.25;;;11.70;;
21418;SDS011;10870;51.384;10.316;2023-03-01T09:40:03;18.90;;;11.88;;
21418;SDS011;10870;51.384;10.316;2023-03-01T09:42:04;20.52;;;12.00;;
21418;SDS011;10870;51.384;10.316;2023-03-01T09:44:40;19.50;;;11.27;;
21418;SDS011;10870;51.384;10.316;2023-03-01T09:46:36;20.20;;;12.27;;
21418;SDS011;10870;51.384;10.316;2023-03-01T09:48:48;16.63;;;10.93;;
21418;SDS011;10870;51.384;10.316;2023-03-01T09:50:51;15.77;;;10.23;;
21418;SDS011;10870;51.384;10.316;2023-03-01T09:55:08;18.00;;;11.10;;
21418;SDS011;10870;51.384;10.316;2023-03-01T09:57:17;22.77;;;12.32;;
21418;SDS011;10870;51.384;10.316;2023-03-01T10:01:36;18.02;;;11.40;;
21418;SDS011;10870;51.384;10.316;2023-03-01T10:03:42;18.33;;;10.07;;
21418;SDS011;10870;51.384;10.316;2023-03-01T10:08:04;19.02;;;12.05;;
21418;SDS011;10870;51.384;10.316;2023-03-01T10:10:08;16.13;;;10.55;;
21418;SDS011;10870;51.384;10.316;2023-03-01T10:12:20;20.50;;;11.45;;
21418;SDS011;10870;51.384;10.316;2023-03-01T10:14:35;21.35;;;10.88;;
21418;SDS011;10870;51.384;10.316;2023-03-01T10:17:00;16.88;;;11.38;;
21418;SDS011;10870;51.384;10.316;2023-03-01T10:19:03;17.77;;;11.52;;
21418;SDS011;10870;51.384;10.316;2023-03-01T10:21:17;19.63;;;11.50;;
21418;SDS011;10870;51.384;10.316;2023-03-01T10:23:19;17.05;;;11.10;;
21418;SDS011;10870;51.384;10.316;2023-03-01T10:27:29;17.02;;;12.13;;
21418;SDS011;10870;51.384;10.316;2023-03-01T10:29:39;17.27;;;11.43;;
21418;SDS011;10870;51.384;10.316;2023-03-01T10:33:45;17.77;;;11.13;;
21418;SDS011;10870;51.384;10.316;2023-03-01T10:35:48;24.80;;;12.40;;
21418;SDS011;10870;51.384;10.316;2023-03-01T10:40:23;16.83;;;11.57;;
21418;SDS011;10870;51.384;10.316;2023-03-01T10:42:54;19.63;;;12.45;;
21418;SDS011;10870;51.384;10.316;2023-03-01T10:45:17;20.75;;;12.05;;
21418;SDS011;10870;51.384;10.316;2023-03-01T10:47:27;18.48;;;11.35;;
21418;SDS011;10870;51.384;10.316;2023-03-01T10:49:28;17.85;;;11.45;;
21418;SDS011;10870;51.384;10.316;2023-03-01T10:51:30;19.10;;;11.80;;
21418;SDS011;10870;51.384;10.316;2023-03-01T10:55:39;17.98;;;11.40;;
21418;SDS011;10870;51.384;10.316;2023-03-01T10:57:41;19.83;;;12.05;;
21418;SDS011;10870;51.384;10.316;2023-03-01T10:59:42;21.35;;;11.25;;
21418;SDS011;10870;51.384;10.316;2023-03-01T11:01:43;18.27;;;11.88;;
21418;SDS011;10870;51.384;10.316;2023-03-01T11:03:45;19.13;;;12.15;;
21418;SDS011;10870;51.384;10.316;2023-03-01T11:05:54;20.55;;;11.35;;
21418;SDS011;10870;51.384;10.316;2023-03-01T11:07:59;14.82;;;10.48;;
21418;SDS011;10870;51.384;10.316;2023-03-01T11:10:03;18.33;;;11.13;;
21418;SDS011;10870;51.384;10.316;2023-03-01T11:12:15;18.50;;;11.23;;
21418;SDS011;10870;51.384;10.316;2023-03-01T11:14:23;18.65;;;12.10;;
21418;SDS011;10870;51.384;10.316;2023-03-01T11:18:32;17.08;;;12.05;;
21418;SDS011;10870;51.384;10.316;2023-03-01T11:20:36;15.50;;;11.07;;
21418;SDS011;10870;51.384;10.316;2023-03-01T11:22:41;19.58;;;11.27;;
21418;SDS011;10870;51.384;10.316;2023-03-01T11:24:46;18.73;;;11.52;;
21418;SDS011;10870;51.384;10.316;2023-03-01T11:26:51;17.00;;;10.00;;
21418;SDS011;10870;51.384;10.316;2023-03-01T11:28:53;17.63;;;11.02;;
21418;SDS011;10870;51.384;10.316;2023-03-01T11:35:23;16.38;;;11.38;;
21418;SDS011;10870;51.384;10.316;2023-03-01T11:42:05;19.92;;;11.10;;
21418;SDS011;10870;51.384;10.316;2023-03-01T11:44:12;17.02;;;10.10;;
21418;SDS011;10870;51.384;10.316;2023-03-01T11:50:44;14.90;;;9.57;;
21418;SDS011;10870;51.384;10.316;2023-03-01T12:10:34;14.60;;;9.07;;
21418;SDS011;10870;51.384;10.316;2023-03-01T12:12:49;16.08;;;9.55;;
21418;SDS011;10870;51.384;10.316;2023-03-01T12:17:16;18.80;;;10.75;;
21418;SDS011;10870;51.384;10.316;2023-03-01T12:21:49;16.85;;;11.10;;
21418;SDS011;10870;51.384;10.316;2023-03-01T12:32:48;14.90;;;10.32;;
21418;SDS011;10870;51.384;10.316;2023-03-01T12:35:03;17.52;;;10.23;;
21418;SDS011;10870;51.384;10.316;2023-03-01T12:50:01;17.08;;;10.55;;
21418;SDS011;10870;51.384;10.316;2023-03-01T12:52:09;16.13;;;9.45;;
21418;SDS011;10870;51.384;10.316;2023-03-01T12:54:15;16.70;;;11.40;;
21418;SDS011;10870;51.384;10.316;2023-03-01T12:56:21;16.83;;;9.70;;
21418;SDS011;10870;51.384;10.316;2023-03-01T13:00:40;13.40;;;8.93;;
21418;SDS011;10870;51.384;10.316;2023-03-01T13:02:49;13.63;;;9.98;;
21418;SDS011;10870;51.384;10.316;2023-03-01T13:09:08;15.02;;;9.82;;
21418;SDS011;10870;51.384;10.316;2023-03-01T13:11:19;14.65;;;9.27;;
21418;SDS011;10870;51.384;10.316;2023-03-01T13:17:39;14.80;;;9.38;;
21418;SDS011;10870;51.384;10.316;2023-03-01T13:19:42;13.25;;;8.48;;
21418;SDS011;10870;51.384;10.316;2023-03-01T13:21:56;15.35;;;9.05;;
21418;SDS011;10870;51.384;10.316;2023-03-01T13:23:58;14.20;;;8.30;;
21418;SDS011;10870;51.384;10.316;2023-03-01T13:28:39;13.25;;;8.02;;
21418;SDS011;10870;51.384;10.316;2023-03-01T13:32:35;13.77;;;8.85;;
21418;SDS011;10870;51.384;10.316;2023-03-01T13:34:43;10.70;;;7.93;;
21418;SDS011;10870;51.384;10.316;2023-03-01T13:36:46;13.88;;;8.25;;
21418;SDS011;10870;51.384;10.316;2023-03-01T13:38:57;10.95;;;7.40;;
21418;SDS011;10870;51.384;10.316;2023-03-01T13:43:04;11.43;;;7.57;;
21418;SDS011;10870;51.384;10.316;2023-03-01T13:47:25;13.63;;;7.88;;
21418;SDS011;10870;51.384;10.316;2023-03-01T13:49:29;14.77;;;8.38;;
21418;SDS011;10870;51.384;10.316;2023-03-01T13:51:34;11.27;;;7.78;;